Terminal Aerodrome Forecast
Issued by NWS Wilmington, OH

Current Version | Previous Version | Graphics & Text | Print | Product List | Glossary On
Versions: 1 2 3 4 5 6 7 8 9 10 11 12 13 14 15 16 17 18 19 20 21 22 23 24 25 26
000
FTUS41 KILN 281300 AAA
TAFILN
TAF AMD
KILN 281334Z 2814/2912 30011KT P6SM OVC015
     FM281600 31011KT P6SM VCSH BKN025
     FM282300 32010KT P6SM BKN035
     FM290300 32005KT P6SM SCT040=

USA.gov is the U.S. government's official web portal to all federal, state and local government web resources and services.